Maeser, Utah
Current Conditions -  °F | °C
As of 5:53 PM on Saturday 25 Oct 2014 (Local Time) from KVEL Reporting Station
Clear Clear  
Wind Chill: 64°   Ceiling: Unl
Heat Index: 64°   Visibility: 10mi
Dew Point: 39°   Wind: 0mph
Humidity: 40%   Direction: NA
Pressure: 30.06"   Gusts: NA
Location:  40.1055°N, 109.498°W
Report Text: KVEL 252353Z AUTO 00000KT 10SM CLR 18/04 A3006 RMK AO2 SLP146 T01780039 10211 20139 57017
Loading
Personal Weather Stations






























Interactive Weather Map
Tropical Storm Tracking
New forecast layout! Learn more

10-Day Weather Forecast

Advertisements
Track Severe Weather on mobile